createdAt,value
2022-08-27T00:02:42.015Z,64.80
2022-08-27T00:07:44.816Z,64.70
2022-08-27T00:12:48.439Z,64.60
2022-08-27T00:17:50.768Z,64.40
2022-08-27T00:22:53.925Z,64.50
2022-08-27T00:27:56.216Z,64.40
2022-08-27T00:32:58.495Z,64.50
2022-08-27T00:38:01.194Z,64.40
2022-08-27T00:43:03.606Z,64.70
2022-08-27T00:48:09.153Z,64.80
2022-08-27T00:53:14.673Z,64.60
2022-08-27T01:03:30.466Z,64.70
2022-08-27T01:08:36.727Z,64.50
2022-08-27T01:13:59.268Z,64.40
2022-08-27T01:19:08.185Z,64.30
2022-08-27T01:24:39.491Z,64.40
2022-08-27T01:29:43.478Z,64.10
2022-08-27T01:34:46.757Z,64.20
2022-08-27T01:39:49.220Z,64.00
2022-08-27T01:50:06.210Z,63.90
2022-08-27T01:55:12.210Z,63.60
2022-08-27T02:00:19.030Z,63.70
2022-08-27T02:05:21.842Z,63.50
2022-08-27T02:10:27.969Z,63.40
2022-08-27T02:15:30.657Z,63.40
2022-08-27T02:20:34.779Z,63.40
2022-08-27T02:25:37.689Z,63.40
2022-08-27T02:30:40.254Z,63.20
2022-08-27T02:35:44.392Z,63.30
2022-08-27T02:40:46.796Z,63.20
2022-08-27T02:45:50.793Z,63.10
2022-08-27T02:50:53.312Z,63.20
2022-08-27T02:55:55.566Z,63.60
2022-08-27T03:00:58.104Z,62.90
2022-08-27T03:06:00.455Z,63.00
2022-08-27T03:11:02.687Z,63.00
2022-08-27T03:16:06.310Z,62.90
2022-08-27T03:21:09.041Z,62.80
2022-08-27T03:26:12.431Z,62.80
2022-08-27T03:31:26.708Z,62.70
2022-08-27T03:36:31.252Z,62.90
2022-08-27T03:41:45.527Z,62.80
2022-08-27T03:46:55.897Z,63.00
2022-08-27T03:51:58.311Z,62.80
2022-08-27T03:57:00.681Z,63.00
2022-08-27T04:02:03.108Z,62.90
2022-08-27T04:07:05.558Z,62.70
2022-08-27T04:12:08.113Z,62.80
2022-08-27T04:17:10.352Z,62.80
2022-08-27T04:22:13.071Z,62.70
2022-08-27T04:27:16.411Z,62.50
2022-08-27T04:32:18.664Z,62.70
2022-08-27T04:37:23.299Z,62.50
2022-08-27T04:42:25.888Z,63.00
2022-08-27T04:47:28.214Z,63.00
2022-08-27T04:52:30.469Z,62.90
2022-08-27T04:57:34.877Z,62.90
2022-08-27T05:02:37.124Z,62.70
2022-08-27T05:07:39.368Z,62.80
2022-08-27T05:12:41.623Z,62.90
2022-08-27T05:17:44.195Z,62.60
2022-08-27T05:22:46.790Z,62.30
2022-08-27T05:27:49.040Z,62.00
2022-08-27T05:32:51.309Z,61.90
2022-08-27T05:37:54.636Z,61.90
2022-08-27T05:42:56.908Z,61.80
2022-08-27T05:47:59.169Z,61.60
2022-08-27T05:53:01.419Z,61.40
2022-08-27T05:58:04.198Z,61.40
2022-08-27T06:03:07.647Z,61.50
2022-08-27T06:08:10.107Z,60.90
2022-08-27T06:13:12.488Z,60.90
2022-08-27T06:18:14.939Z,61.00
2022-08-27T06:23:17.582Z,61.20
2022-08-27T06:28:30.610Z,60.60
2022-08-27T06:33:33.196Z,60.70
2022-08-27T06:38:36.685Z,59.80
2022-08-27T06:43:40.716Z,60.30
2022-08-27T06:48:48.392Z,61.20
2022-08-27T06:53:52.658Z,65.30
2022-08-27T06:58:57.496Z,64.70
2022-08-27T07:04:02.362Z,62.80
2022-08-27T07:09:05.558Z,61.10
2022-08-27T07:14:08.550Z,56.70
2022-08-27T07:19:11.782Z,54.90
2022-08-27T07:24:14.187Z,56.00
2022-08-27T07:29:16.466Z,55.50
2022-08-27T07:34:18.956Z,52.50
2022-08-27T07:39:21.265Z,51.80
2022-08-27T07:44:28.071Z,51.30
2022-08-27T07:49:35.355Z,48.70
2022-08-27T07:54:38.163Z,47.90
2022-08-27T07:59:40.406Z,49.20
2022-08-27T08:04:42.653Z,49.10
2022-08-27T08:09:44.886Z,46.50
2022-08-27T08:14:47.227Z,47.10
2022-08-27T08:20:08.580Z,47.00
2022-08-27T08:25:14.132Z,47.60
2022-08-27T08:30:16.630Z,46.90
2022-08-27T08:35:19.267Z,46.40
2022-08-27T08:40:41.871Z,47.10
2022-08-27T08:45:46.352Z,46.90
2022-08-27T08:50:57.827Z,46.40
2022-08-27T08:56:03.791Z,46.40
2022-08-27T09:01:09.759Z,48.30
2022-08-27T09:06:24.266Z,50.70
2022-08-27T09:16:36.509Z,51.30
2022-08-27T09:26:52.828Z,52.10
2022-08-27T09:37:17.323Z,55.30
2022-08-27T09:42:29.992Z,57.70
2022-08-27T09:47:43.372Z,56.90
2022-08-27T09:57:56.855Z,58.20
2022-08-27T10:03:03.030Z,59.40
2022-08-27T10:08:28.438Z,59.30
2022-08-27T10:46:05.554Z,61.70
2022-08-27T10:51:23.722Z,61.90
2022-08-27T10:57:03.696Z,59.60
2022-08-27T11:07:45.207Z,61.40
2022-08-27T11:12:51.853Z,61.30
2022-08-27T11:23:10.203Z,61.60
2022-08-27T11:28:14.364Z,60.90
2022-08-27T11:38:53.755Z,60.90
2022-08-27T11:43:57.878Z,62.00
2022-08-27T11:49:03.431Z,62.30
2022-08-27T11:54:09.646Z,62.60
2022-08-27T12:04:36.434Z,64.40
2022-08-27T12:15:18.541Z,65.70
2022-08-27T12:20:48.608Z,66.30
2022-08-27T12:26:13.047Z,66.00
2022-08-27T12:31:21.652Z,66.10
2022-08-27T12:36:28.605Z,66.50
2022-08-27T12:41:44.218Z,66.00
2022-08-27T12:46:50.867Z,66.50
2022-08-27T12:51:54.942Z,66.10
2022-08-27T12:57:20.553Z,66.50
2022-08-27T13:02:42.181Z,66.70
2022-08-27T13:07:47.166Z,67.90
2022-08-27T13:13:03.096Z,69.40
2022-08-27T13:18:07.492Z,69.50
2022-08-27T13:23:24.144Z,70.40
2022-08-27T13:28:29.400Z,70.60
2022-08-27T13:33:34.534Z,71.00
2022-08-27T13:38:44.526Z,71.20
2022-08-27T13:43:49.982Z,71.40
2022-08-27T13:48:56.117Z,70.10
2022-08-27T13:54:16.889Z,70.10
2022-08-27T14:09:59.390Z,70.90
2022-08-27T14:20:34.789Z,70.90
2022-08-27T14:25:37.072Z,71.80
2022-08-27T14:30:39.829Z,72.40
2022-08-27T14:35:42.600Z,72.70
2022-08-27T14:40:46.083Z,73.30
2022-08-27T14:45:49.223Z,73.60
2022-08-27T14:50:54.085Z,73.80
2022-08-27T14:55:58.951Z,73.60
2022-08-27T15:01:02.091Z,73.20
2022-08-27T15:06:04.955Z,73.80
2022-08-27T15:11:14.495Z,74.30
2022-08-27T15:16:27.339Z,74.10
2022-08-27T15:21:30.997Z,74.00
2022-08-27T15:26:34.939Z,74.30
2022-08-27T15:31:38.821Z,73.90
2022-08-27T15:36:41.515Z,73.20
2022-08-27T15:42:05.087Z,73.70
2022-08-27T15:47:06.384Z,73.80
2022-08-27T15:52:10.735Z,73.00
2022-08-27T15:57:17.851Z,72.60
2022-08-27T16:02:23.510Z,72.40
2022-08-27T16:07:26.646Z,72.80
2022-08-27T16:12:29.047Z,73.30
2022-08-27T16:17:31.595Z,72.80
2022-08-27T16:22:34.979Z,73.00
2022-08-27T16:27:37.604Z,73.50
2022-08-27T16:32:40.975Z,73.40
2022-08-27T16:37:44.368Z,72.70
2022-08-27T16:42:48.964Z,72.40
2022-08-27T16:48:11.887Z,72.50
2022-08-27T16:53:18.008Z,72.90
2022-08-27T16:58:24.532Z,72.80
2022-08-27T17:03:28.315Z,72.40
2022-08-27T17:08:30.614Z,72.00
2022-08-27T17:13:33.070Z,72.40
2022-08-27T17:18:35.922Z,72.80
2022-08-27T17:23:41.427Z,73.40
2022-08-27T17:28:45.128Z,73.70
2022-08-27T17:33:50.252Z,72.80
2022-08-27T17:38:53.912Z,72.40
2022-08-27T17:43:59.555Z,72.20
2022-08-27T17:49:02.121Z,72.10
2022-08-27T17:54:06.109Z,71.90
2022-08-27T17:59:08.991Z,71.80
2022-08-27T18:04:11.324Z,71.80
2022-08-27T18:09:16.016Z,71.60
2022-08-27T18:14:18.688Z,71.40
2022-08-27T18:19:20.957Z,71.30
2022-08-27T18:24:23.200Z,71.30
2022-08-27T18:29:25.563Z,71.10
2022-08-27T18:34:27.899Z,70.90
2022-08-27T18:39:30.141Z,70.70
2022-08-27T18:44:38.268Z,70.50
2022-08-27T18:49:40.548Z,70.10
2022-08-27T18:54:43.171Z,69.90
2022-08-27T18:59:45.792Z,69.20
2022-08-27T19:04:48.758Z,69.10
2022-08-27T19:09:51.191Z,69.00
2022-08-27T19:14:53.470Z,69.20
2022-08-27T19:19:56.208Z,69.20
2022-08-27T19:24:59.727Z,68.90
2022-08-27T19:30:02.155Z,68.70
2022-08-27T19:35:05.552Z,68.30
2022-08-27T19:40:08.600Z,68.00
2022-08-27T19:45:11.338Z,67.80
2022-08-27T19:50:16.609Z,67.50
2022-08-27T19:55:19.148Z,67.10
2022-08-27T20:00:24.603Z,66.90
2022-08-27T20:05:30.201Z,66.70
2022-08-27T20:10:36.439Z,66.20
2022-08-27T20:15:40.678Z,65.90
2022-08-27T20:20:42.943Z,65.40
2022-08-27T20:25:45.520Z,65.50
2022-08-27T20:30:48.678Z,65.30
2022-08-27T20:35:51.198Z,64.90
2022-08-27T20:40:53.556Z,65.00
2022-08-27T20:45:56.646Z,64.70
2022-08-27T20:50:58.998Z,65.40
2022-08-27T20:56:01.323Z,65.90
2022-08-27T21:01:04.522Z,66.80
2022-08-27T21:06:07.206Z,66.20
2022-08-27T21:11:12.114Z,66.10
2022-08-27T21:16:14.484Z,66.40
2022-08-27T21:21:16.795Z,66.90
2022-08-27T21:26:20.210Z,67.10
2022-08-27T21:31:22.505Z,67.40
2022-08-27T21:36:24.798Z,67.60
2022-08-27T21:41:28.098Z,67.50
2022-08-27T21:46:30.532Z,67.60
2022-08-27T21:51:32.928Z,67.70
2022-08-27T21:56:35.162Z,67.80
2022-08-27T22:01:37.821Z,67.80
2022-08-27T22:06:40.163Z,67.70
2022-08-27T22:11:42.440Z,66.30
2022-08-27T22:16:47.493Z,65.60
2022-08-27T22:21:49.920Z,65.40
2022-08-27T22:26:52.162Z,65.00
2022-08-27T22:31:54.499Z,64.80
2022-08-27T22:36:56.763Z,64.50
2022-08-27T22:41:59.234Z,64.40
2022-08-27T22:47:02.704Z,64.20
2022-08-27T22:52:05.085Z,63.70
2022-08-27T22:57:10.363Z,63.80
2022-08-27T23:02:12.957Z,64.10
2022-08-27T23:07:15.556Z,63.40
2022-08-27T23:12:19.935Z,63.20
2022-08-27T23:17:23.951Z,63.20
2022-08-27T23:22:27.479Z,63.00
2022-08-27T23:27:29.772Z,62.80
2022-08-27T23:32:32.396Z,62.70
2022-08-27T23:37:34.824Z,62.40
2022-08-27T23:42:37.666Z,62.20
2022-08-27T23:47:40.248Z,61.70
2022-08-27T23:52:42.824Z,61.70
2022-08-27T23:57:45.078Z,61.50
